Time;durP1;ratioP1;P1;durP2;ratioP2;P2;SDS_P1;SDS_P2;PMS_P1;PMS_P2;Temp;Humidity;BMP_temperature;BMP_pressure;BME280_temperature;BME280_humidity;BME280_pressure;Samples;Min_cycle;Max_cycle;Signal;HPM_P1;HPM_P2
2022/07/23 00:01:34;;;;;;;6.50;4.28;;;;;;;24.35;47.25;98679.75;4484095;32;20092;-71
2022/07/23 00:04:02;;;;;;;7.22;4.20;;;;;;;24.30;47.43;98676.94;4484153;32;20453;-71
2022/07/23 00:06:29;;;;;;;5.68;3.75;;;;;;;24.21;46.56;98673.75;4483830;31;20088;-70
2022/07/23 00:08:56;;;;;;;4.70;4.00;;;;;;;24.12;46.56;98670.59;4484161;32;20123;-71
2022/07/23 00:11:24;;;;;;;7.00;4.10;;;;;;;24.16;46.13;98676.31;4483809;32;20115;-71
2022/07/23 00:13:51;;;;;;;8.80;4.57;;;;;;;24.20;46.01;98670.28;4483987;32;20107;-71
2022/07/23 00:16:18;;;;;;;7.62;4.22;;;;;;;24.21;45.51;98673.75;4483916;31;20100;-71
2022/07/23 00:18:45;;;;;;;5.93;4.28;;;;;;;24.26;45.69;98673.91;4483853;32;20122;-71
2022/07/23 00:21:12;;;;;;;10.07;4.18;;;;;;;24.24;46.28;98671.44;4485764;32;20544;-71
2022/07/23 00:23:39;;;;;;;6.53;4.37;;;;;;;24.41;46.22;98673.47;4486145;31;20104;-71
2022/07/23 00:26:07;;;;;;;6.78;4.05;;;;;;;24.48;46.36;98673.38;4485964;32;20108;-71
2022/07/23 00:28:34;;;;;;;6.68;3.95;;;;;;;24.60;46.20;98676.91;4486076;32;20564;-70
2022/07/23 00:31:02;;;;;;;6.35;4.43;;;;;;;24.62;46.08;98677.50;4486102;31;20513;-71
2022/07/23 00:33:30;;;;;;;7.22;4.87;;;;;;;24.52;46.83;98671.88;4486134;31;20104;-71
2022/07/23 00:35:57;;;;;;;6.68;4.87;;;;;;;24.42;47.35;98681.28;4485790;31;20509;-71
2022/07/23 00:38:25;;;;;;;7.97;4.25;;;;;;;24.35;47.56;98682.44;4485996;31;20175;-71
2022/07/23 00:40:52;;;;;;;4.55;4.05;;;;;;;24.21;46.90;98677.28;4485863;32;20093;-71
2022/07/23 00:43:23;;;;;;;6.30;4.25;;;;;;;24.24;46.71;98679.47;4486063;32;20520;-71
2022/07/23 00:45:50;;;;;;;7.87;4.47;;;;;;;24.20;47.41;98683.66;4485999;31;20112;-71
2022/07/23 00:48:18;;;;;;;7.80;4.15;;;;;;;24.14;47.75;98681.87;4486043;31;20095;-71
2022/07/23 00:50:45;;;;;;;4.82;3.95;;;;;;;24.05;48.31;98676.03;4485405;31;20147;-71
2022/07/23 00:53:12;;;;;;;6.53;4.53;;;;;;;23.99;48.22;98671.59;4485914;31;20145;-71
2022/07/23 00:55:40;;;;;;;5.95;4.35;;;;;;;23.92;47.91;98677.03;4485812;31;20119;-70
2022/07/23 00:58:08;;;;;;;6.55;4.15;;;;;;;23.88;47.84;98675.84;4485914;31;20088;-70
2022/07/23 01:00:36;;;;;;;5.50;4.20;;;;;;;23.84;48.46;98680.00;4485497;31;20528;-71
2022/07/23 01:03:03;;;;;;;7.00;4.10;;;;;;;23.73;48.89;98675.41;4485948;31;20156;-70
2022/07/23 01:05:30;;;;;;;6.75;4.30;;;;;;;23.67;48.78;98673.63;4485993;31;20160;-71
2022/07/23 01:07:57;;;;;;;5.22;4.20;;;;;;;23.63;48.08;98675.13;4485752;32;20475;-70
2022/07/23 01:10:31;;;;;;;8.57;4.32;;;;;;;23.59;47.94;98676.59;4485875;31;20092;-71
2022/07/23 01:13:09;;;;;;;8.23;4.68;;;;;;;23.61;48.14;98677.22;4485668;32;20077;-71
2022/07/23 01:15:37;;;;;;;5.37;4.68;;;;;;;23.62;48.02;98684.19;4485852;31;20145;-71
2022/07/23 01:18:06;;;;;;;6.10;4.55;;;;;;;23.59;48.25;98679.28;4484544;32;20095;-71
2022/07/23 01:20:34;;;;;;;7.15;4.75;;;;;;;23.52;48.45;98666.81;4485672;31;20550;-71
2022/07/23 01:23:01;;;;;;;8.52;4.72;;;;;;;23.48;49.07;98671.00;4485956;31;20100;-71
2022/07/23 01:25:29;;;;;;;4.68;3.90;;;;;;;23.44;49.27;98667.13;4485859;31;20506;-71
2022/07/23 01:27:56;;;;;;;4.70;4.25;;;;;;;23.37;49.40;98669.84;4478641;31;230330;-70
2022/07/23 01:30:24;;;;;;;6.07;4.93;;;;;;;23.38;49.58;98662.66;4485079;32;20449;-71
2022/07/23 01:32:51;;;;;;;6.25;4.60;;;;;;;23.37;49.68;98663.69;4485631;31;20100;-70
2022/07/23 01:35:18;;;;;;;6.43;4.40;;;;;;;23.35;49.83;98671.94;4485730;31;20104;-71
2022/07/23 01:37:46;;;;;;;8.00;4.62;;;;;;;23.29;50.29;98666.69;4484158;32;20129;-71
2022/07/23 01:40:14;;;;;;;6.57;4.25;;;;;;;23.25;50.04;98654.78;4485927;32;20107;-71
2022/07/23 01:42:41;;;;;;;4.53;3.97;;;;;;;23.26;49.79;98670.59;4485786;31;20111;-71
2022/07/23 01:45:09;;;;;;;5.70;4.47;;;;;;;23.36;49.34;98667.41;4485792;32;20097;-71
2022/07/23 01:47:38;;;;;;;6.10;4.37;;;;;;;23.36;49.42;98664.72;4485630;31;20100;-71
2022/07/23 01:50:05;;;;;;;10.02;4.80;;;;;;;23.35;49.27;98673.81;4485605;31;20123;-70
2022/07/23 01:52:34;;;;;;;9.27;4.85;;;;;;;23.33;49.20;98659.81;4485731;31;20115;-70
2022/07/23 01:55:01;;;;;;;6.03;4.75;;;;;;;23.36;49.35;98664.72;4485544;32;20084;-70
2022/07/23 01:57:28;;;;;;;9.45;5.00;;;;;;;23.39;49.19;98657.09;4485405;31;20092;-71
2022/07/23 01:59:55;;;;;;;10.05;5.72;;;;;;;23.43;48.92;98662.81;4485719;31;20157;-71
2022/07/23 02:02:23;;;;;;;7.35;4.57;;;;;;;23.42;48.76;98663.84;4485635;31;20172;-71
2022/07/23 02:04:52;;;;;;;7.72;4.53;;;;;;;23.43;48.61;98657.44;4485499;31;20112;-71
2022/07/23 02:07:20;;;;;;;7.32;4.87;;;;;;;23.42;48.74;98660.34;4485625;32;20582;-71
2022/07/23 02:09:47;;;;;;;5.62;4.72;;;;;;;23.37;49.23;98658.34;4485465;31;20156;-71
2022/07/23 02:12:15;;;;;;;4.78;4.10;;;;;;;23.27;49.75;98655.38;4485253;32;20092;-71
2022/07/23 02:14:44;;;;;;;11.57;5.10;;;;;;;23.22;50.09;98666.72;4485483;32;20621;-71
2022/07/23 02:17:11;;;;;;;6.60;4.47;;;;;;;23.15;50.76;98658.78;4485488;32;20091;-71
2022/07/23 02:19:39;;;;;;;13.52;5.05;;;;;;;23.07;51.05;98661.72;4485129;32;20100;-71
2022/07/23 02:22:06;;;;;;;7.20;5.00;;;;;;;23.06;51.27;98662.75;4485059;31;20093;-71
2022/07/23 02:24:34;;;;;;;7.20;4.72;;;;;;;23.03;51.86;98660.53;4485662;31;20097;-71
2022/07/23 02:27:02;;;;;;;5.07;4.43;;;;;;;22.97;52.19;98659.56;4485315;31;20084;-71
2022/07/23 02:29:29;;;;;;;8.10;4.97;;;;;;;22.94;52.63;98664.53;4485292;31;20096;-71
2022/07/23 02:31:56;;;;;;;7.50;4.50;;;;;;;22.89;53.01;98667.03;4485183;31;20115;-71
2022/07/23 02:34:23;;;;;;;9.85;4.57;;;;;;;22.83;53.28;98653.53;4485125;32;20131;-71
2022/07/23 02:36:51;;;;;;;6.37;5.30;;;;;;;22.84;53.20;98660.47;4485227;32;20099;-71
2022/07/23 02:39:19;;;;;;;9.13;4.72;;;;;;;22.85;53.31;98662.13;4485352;31;20088;-71
2022/07/23 02:41:48;;;;;;;11.32;4.87;;;;;;;22.85;53.62;98659.47;4484399;31;20096;-71
2022/07/23 02:44:15;;;;;;;9.15;4.85;;;;;;;22.84;53.78;98657.00;4485262;31;20108;-71
2022/07/23 02:46:43;;;;;;;9.27;4.65;;;;;;;22.82;53.75;98667.91;4485230;31;20147;-71
2022/07/23 02:49:10;;;;;;;7.60;4.53;;;;;;;22.79;53.65;98663.00;4484981;32;20130;-71
2022/07/23 02:51:37;;;;;;;6.18;5.25;;;;;;;22.78;53.24;98665.91;4484954;32;20438;-71
2022/07/23 02:54:05;;;;;;;8.80;4.62;;;;;;;22.73;53.29;98668.41;4485071;32;20160;-71
2022/07/23 02:56:33;;;;;;;7.35;4.60;;;;;;;22.68;53.32;98667.22;4485074;32;20112;-70
2022/07/23 02:59:00;;;;;;;9.82;4.70;;;;;;;22.66;53.45;98668.47;4485013;32;20488;-70
2022/07/23 03:01:27;;;;;;;6.65;4.93;;;;;;;22.67;53.44;98662.91;4484930;31;20096;-70
2022/07/23 03:03:55;;;;;;;7.03;4.57;;;;;;;22.64;53.69;98660.66;4484788;31;20163;-70
2022/07/23 03:06:22;;;;;;;9.35;4.40;;;;;;;22.61;54.36;98658.44;4485087;31;20104;-71
2022/07/23 03:08:49;;;;;;;6.55;4.60;;;;;;;22.65;54.22;98656.97;4484907;32;20131;-70
2022/07/23 03:11:17;;;;;;;10.95;5.53;;;;;;;22.67;54.25;98660.22;4485320;31;20461;-71
2022/07/23 03:13:45;;;;;;;9.60;4.68;;;;;;;22.71;54.25;98655.28;4484655;31;20092;-70
2022/07/23 03:16:12;;;;;;;9.57;5.03;;;;;;;22.79;54.32;98657.66;4485205;32;20092;-70
2022/07/23 03:18:40;;;;;;;8.13;5.25;;;;;;;22.89;53.94;98653.66;4484613;31;20114;-70
2022/07/23 03:21:09;;;;;;;8.90;4.80;;;;;;;22.96;53.92;98651.75;4484744;31;20157;-71
2022/07/23 03:23:36;;;;;;;7.57;4.80;;;;;;;23.02;53.91;98656.22;4484895;31;20104;-71
2022/07/23 03:26:04;;;;;;;9.63;5.40;;;;;;;23.05;53.96;98658.44;4484766;32;20149;-71
2022/07/23 03:28:31;;;;;;;7.70;4.30;;;;;;;23.02;53.93;98650.88;4484329;31;20111;-71
2022/07/23 03:30:58;;;;;;;7.18;4.72;;;;;;;22.98;53.96;98649.69;4484454;31;20092;-71
2022/07/23 03:33:26;;;;;;;9.05;4.65;;;;;;;22.94;53.94;98646.63;4484799;32;20406;-71
2022/07/23 03:35:53;;;;;;;11.10;5.10;;;;;;;23.00;54.01;98658.31;4484679;31;20149;-71
2022/07/23 03:38:21;;;;;;;6.20;4.93;;;;;;;23.10;53.87;98653.28;4484732;31;20104;-71
2022/07/23 03:40:50;;;;;;;8.18;4.65;;;;;;;23.20;53.67;98655.44;4484378;32;20524;-71
2022/07/23 03:43:17;;;;;;;6.97;4.22;;;;;;;23.29;53.82;98662.13;4484609;31;20435;-71
2022/07/23 03:45:44;;;;;;;9.45;4.85;;;;;;;23.33;54.55;98660.66;4484551;31;20172;-71
2022/07/23 03:48:13;;;;;;;9.10;4.40;;;;;;;23.46;54.26;98664.22;4484586;32;20089;-71
2022/07/23 03:50:40;;;;;;;9.65;4.80;;;;;;;23.55;54.31;98671.69;4483816;31;20583;-71
2022/07/23 03:53:08;;;;;;;6.10;4.62;;;;;;;23.63;54.55;98665.22;4484707;32;20096;-71
2022/07/23 03:55:35;;;;;;;8.85;5.20;;;;;;;23.79;53.99;98677.19;4486279;32;20119;-71
2022/07/23 03:58:02;;;;;;;5.40;4.80;;;;;;;23.91;53.08;98669.25;4486439;31;20089;-71
2022/07/23 04:00:30;;;;;;;6.35;4.60;;;;;;;24.05;53.01;98670.69;4486312;31;20472;-70
2022/07/23 04:02:57;;;;;;;9.30;4.95;;;;;;;24.16;52.80;98669.09;4486240;32;20158;-70
2022/07/23 04:05:25;;;;;;;8.20;4.45;;;;;;;24.28;52.13;98669.13;4486223;31;20099;-70
2022/07/23 04:07:52;;;;;;;8.20;5.30;;;;;;;24.40;52.21;98672.66;4486479;31;20092;-70
2022/07/23 04:10:19;;;;;;;7.20;4.75;;;;;;;24.50;52.50;98673.94;4486421;31;20139;-71
2022/07/23 04:12:47;;;;;;;10.00;4.72;;;;;;;24.54;53.32;98677.78;4486320;31;20140;-70
2022/07/23 04:15:14;;;;;;;9.23;4.97;;;;;;;24.49;53.21;98681.16;4486327;32;20088;-70
2022/07/23 04:17:41;;;;;;;5.97;5.07;;;;;;;24.54;52.64;98680.47;4486121;32;20159;-70
2022/07/23 04:20:10;;;;;;;7.18;5.15;;;;;;;24.55;52.84;98672.22;4485727;32;20124;-71
2022/07/23 04:22:37;;;;;;;8.25;5.32;;;;;;;24.58;53.09;98679.81;4486363;31;20891;-71
2022/07/23 04:25:05;;;;;;;8.65;5.40;;;;;;;24.66;53.10;98683.22;4486026;32;20100;-71
2022/07/23 04:27:33;;;;;;;7.22;4.72;;;;;;;24.70;52.11;98674.47;4485062;32;20571;-71
2022/07/23 04:30:00;;;;;;;11.20;4.90;;;;;;;24.81;52.02;98678.22;4485798;31;20130;-71
2022/07/23 04:32:28;;;;;;;6.95;4.90;;;;;;;24.87;51.14;98671.91;4486430;31;20096;-70
2022/07/23 04:34:56;;;;;;;9.32;6.70;;;;;;;25.04;50.25;98677.41;4486000;32;20243;-71
2022/07/23 04:37:23;;;;;;;9.07;5.30;;;;;;;25.12;49.48;98676.25;4486191;32;20144;-70
2022/07/23 04:39:50;;;;;;;9.63;5.55;;;;;;;25.17;49.42;98680.91;4485749;32;20446;-70
2022/07/23 04:42:18;;;;;;;9.98;5.37;;;;;;;25.20;48.91;98675.87;4485809;32;20088;-71
2022/07/23 04:44:45;;;;;;;6.40;5.07;;;;;;;25.23;49.08;98677.28;4485869;31;20100;-70
2022/07/23 04:47:12;;;;;;;7.87;4.78;;;;;;;25.32;48.90;98681.25;4486253;32;20119;-71
2022/07/23 04:49:41;;;;;;;6.87;4.60;;;;;;;25.53;48.71;98684.34;4485819;32;20100;-71
2022/07/23 04:52:08;;;;;;;7.20;5.00;;;;;;;25.74;48.09;98678.38;4485989;32;20097;-71
2022/07/23 04:54:36;;;;;;;7.87;4.72;;;;;;;26.00;46.98;98679.69;4485848;32;20146;-71
2022/07/23 04:57:03;;;;;;;6.68;5.07;;;;;;;26.29;47.54;98679.66;4485889;31;20149;-71
2022/07/23 04:59:30;;;;;;;8.82;4.80;;;;;;;26.48;45.90;98680.28;4485681;32;20430;-71
2022/07/23 05:01:58;;;;;;;5.93;4.62;;;;;;;26.69;45.22;98678.75;4486123;31;20096;-71
2022/07/23 05:04:25;;;;;;;12.45;4.85;;;;;;;27.08;45.05;98684.16;4484599;32;20461;-71
2022/07/23 05:06:52;;;;;;;9.70;4.95;;;;;;;27.34;45.42;98681.03;4485528;31;20474;-71
2022/07/23 05:09:20;;;;;;;6.97;5.40;;;;;;;27.50;44.60;98679.38;4486032;32;20105;-71
2022/07/23 05:11:47;;;;;;;11.02;5.05;;;;;;;27.66;44.25;98678.50;4485966;31;20518;-71
2022/07/23 05:14:15;;;;;;;12.18;5.15;;;;;;;27.95;43.80;98680.97;4485947;31;20131;-71
2022/07/23 05:16:43;;;;;;;6.32;4.93;;;;;;;28.13;43.77;98677.94;4486097;31;20072;-71
2022/07/23 05:19:10;;;;;;;10.48;5.10;;;;;;;28.28;42.54;98684.53;4485809;31;20100;-71
2022/07/23 05:21:38;;;;;;;9.15;5.70;;;;;;;28.52;42.06;98684.22;4485800;31;20460;-71
2022/07/23 05:24:06;;;;;;;11.93;5.30;;;;;;;28.73;41.99;98687.91;4485920;32;20123;-71
2022/07/23 05:26:33;;;;;;;6.35;4.78;;;;;;;28.95;40.60;98687.78;4485914;31;20097;-71
2022/07/23 05:29:03;;;;;;;6.10;4.90;;;;;;;29.05;39.27;98692.44;4485775;31;20161;-70
2022/07/23 05:31:31;;;;;;;7.05;4.57;;;;;;;29.23;39.21;98696.63;4485716;32;20088;-71
2022/07/23 05:33:58;;;;;;;6.78;4.68;;;;;;;29.46;38.39;98676.50;4485679;32;20469;-71
2022/07/23 05:36:26;;;;;;;5.15;4.60;;;;;;;29.72;38.16;98688.19;4485891;31;20100;-71
2022/07/23 05:38:53;;;;;;;14.63;5.15;;;;;;;29.91;36.44;98694.78;4485843;31;20501;-71
2022/07/23 05:41:20;;;;;;;12.02;4.15;;;;;;;30.17;36.62;98686.72;4485509;31;20120;-71
2022/07/23 05:43:48;;;;;;;9.90;4.57;;;;;;;30.41;35.40;98686.25;4485391;32;20167;-71
2022/07/23 05:46:15;;;;;;;5.97;4.65;;;;;;;30.39;35.61;98685.69;4485865;31;20136;-71
2022/07/23 05:48:49;;;;;;;8.32;5.10;;;;;;;30.55;35.49;98691.94;4485652;31;20168;-71
2022/07/23 05:51:25;;;;;;;;;;;;;;;30.63;35.74;98688.69;4485865;31;20161;-71
2022/07/23 05:53:53;;;;;;;5.72;4.55;;;;;;;30.86;35.20;98690.03;4484617;32;20010;-71
2022/07/23 05:56:20;;;;;;;9.77;4.53;;;;;;;31.06;35.13;98685.69;4485589;31;20588;-71
2022/07/23 05:58:48;;;;;;;7.68;4.80;;;;;;;31.07;34.78;98687.28;4485320;31;20097;-71
2022/07/23 06:01:15;;;;;;;11.05;4.50;;;;;;;31.20;35.23;98691.34;4485633;31;20162;-71
2022/07/23 06:03:43;;;;;;;8.52;4.35;;;;;;;31.33;34.89;98690.75;4485581;31;20472;-71
2022/07/23 06:06:11;;;;;;;14.48;5.15;;;;;;;31.37;34.79;98685.59;4485504;32;20084;-71
2022/07/23 06:08:39;;;;;;;5.35;4.20;;;;;;;31.48;34.43;98682.56;4485693;31;20093;-71
2022/07/23 06:11:07;;;;;;;8.10;4.37;;;;;;;31.47;33.84;98680.16;4485516;32;20114;-71
2022/07/23 06:13:35;;;;;;;10.75;4.93;;;;;;;31.26;34.04;98677.50;4485597;31;20112;-71
2022/07/23 06:16:02;;;;;;;10.90;5.40;;;;;;;30.97;34.66;98672.69;4485419;31;20608;-71
2022/07/23 06:18:30;;;;;;;12.25;5.43;;;;;;;30.58;37.55;98673.28;4485376;31;20084;-71
2022/07/23 06:20:57;;;;;;;12.63;5.43;;;;;;;30.54;36.66;98674.91;4484916;31;20394;-71
2022/07/23 06:23:26;;;;;;;10.02;4.95;;;;;;;30.76;36.49;98671.09;4485490;31;20123;-71
2022/07/23 06:25:54;;;;;;;11.00;4.18;;;;;;;30.76;36.42;98671.91;4485137;31;20453;-71
2022/07/23 06:28:21;;;;;;;8.45;4.78;;;;;;;30.77;36.93;98670.81;4485386;31;20549;-71
2022/07/23 06:30:49;;;;;;;6.80;4.65;;;;;;;30.83;36.15;98668.94;4484989;31;20123;-71
2022/07/23 06:33:17;;;;;;;5.97;3.83;;;;;;;31.03;35.89;98670.00;4485297;32;20084;-71
2022/07/23 06:35:45;;;;;;;11.40;4.57;;;;;;;31.27;35.12;98672.91;4485070;31;20092;-72
2022/07/23 06:38:12;;;;;;;8.15;4.45;;;;;;;31.42;36.22;98667.44;4485088;32;20755;-72
2022/07/23 06:40:41;;;;;;;11.48;4.65;;;;;;;31.60;34.08;98668.75;4485093;31;20135;-72
2022/07/23 06:43:08;;;;;;;13.65;4.80;;;;;;;31.74;34.18;98668.94;4485147;31;20523;-72
2022/07/23 06:45:36;;;;;;;8.23;4.40;;;;;;;31.89;35.93;98670.78;4485036;32;20083;-73
2022/07/23 06:48:04;;;;;;;13.23;5.00;;;;;;;31.75;33.65;98669.75;4485363;31;20111;-74
2022/07/23 06:50:31;;;;;;;7.93;4.47;;;;;;;31.71;33.70;98677.63;4484684;31;20168;-73
2022/07/23 06:52:58;;;;;;;8.95;3.97;;;;;;;31.75;33.42;98675.16;4485044;31;20110;-73
2022/07/23 06:55:26;;;;;;;11.50;4.80;;;;;;;31.87;34.23;98677.53;4484999;32;20126;-73
2022/07/23 06:57:53;;;;;;;21.02;5.47;;;;;;;31.98;35.01;98674.50;4485008;31;20085;-73
2022/07/23 07:00:21;;;;;;;7.65;4.57;;;;;;;32.11;33.55;98672.28;4485085;32;20180;-72
2022/07/23 07:02:48;;;;;;;16.87;4.60;;;;;;;32.05;33.65;98667.97;4485275;31;20096;-74
2022/07/23 07:05:16;;;;;;;12.43;4.72;;;;;;;31.93;34.98;98671.00;4484885;31;20141;-74
2022/07/23 07:07:43;;;;;;;8.82;4.62;;;;;;;32.02;35.56;98662.03;4484963;32;20446;-73
2022/07/23 07:10:10;;;;;;;16.92;5.55;;;;;;;32.11;34.94;98664.16;4484950;32;20093;-73
2022/07/23 07:12:42;;;;;;;11.38;4.97;;;;;;;32.16;33.57;98666.84;4485121;32;20815;-74
2022/07/23 07:15:09;;;;;;;12.93;5.62;;;;;;;32.37;35.88;98670.19;4484928;31;20114;-73
2022/07/23 07:17:36;;;;;;;8.77;5.10;;;;;;;32.55;35.57;98664.09;4485122;31;20115;-74
2022/07/23 07:20:04;;;;;;;13.52;5.18;;;;;;;32.24;34.08;98668.13;4484685;31;20115;-74
2022/07/23 07:22:31;;;;;;;5.82;5.05;;;;;;;32.52;35.85;98667.37;4483628;32;20153;-74
2022/07/23 07:24:59;;;;;;;12.02;4.87;;;;;;;32.63;35.07;98662.66;4484871;31;20560;-74
2022/07/23 07:27:26;;;;;;;14.13;4.22;;;;;;;32.80;34.32;98661.47;4484838;32;20084;-74
2022/07/23 07:29:53;;;;;;;14.63;5.28;;;;;;;32.95;33.41;98663.22;4484188;32;20120;-74
2022/07/23 07:32:20;;;;;;;12.13;4.65;;;;;;;33.01;33.69;98664.78;4484911;32;20092;-74
2022/07/23 07:35:08;;;;;;;12.57;4.95;;;;;;;32.87;35.97;98662.72;4484489;31;20123;-74
2022/07/23 07:37:36;;;;;;;10.60;4.57;;;;;;;33.00;33.12;98669.38;4484541;32;20119;-74
2022/07/23 07:40:03;;;;;;;9.00;4.85;;;;;;;33.03;33.31;98666.09;4484534;32;20443;-74
2022/07/23 07:42:32;;;;;;;15.63;5.75;;;;;;;33.45;33.12;98671.06;4484587;31;20100;-74
2022/07/23 07:44:59;;;;;;;11.73;4.45;;;;;;;33.64;32.70;98655.59;4484363;32;20132;-73
2022/07/23 07:47:26;;;;;;;16.52;4.37;;;;;;;33.61;32.14;98658.91;4484418;31;20415;-73
2022/07/23 07:49:53;;;;;;;7.95;4.35;;;;;;;33.73;31.01;98662.06;4484359;31;20119;-74
2022/07/23 07:52:21;;;;;;;13.55;4.65;;;;;;;33.70;30.54;98659.06;4484123;31;20232;-73
2022/07/23 07:54:48;;;;;;;8.60;4.72;;;;;;;33.82;31.80;98664.91;4483986;32;20088;-74
2022/07/23 07:57:15;;;;;;;8.55;4.10;;;;;;;34.04;30.70;98660.81;4483637;31;20080;-73
2022/07/23 07:59:43;;;;;;;12.15;4.43;;;;;;;34.22;29.17;98659.97;4484200;32;20347;-74
2022/07/23 08:02:11;;;;;;;7.95;4.30;;;;;;;34.35;29.88;98666.59;4484025;31;20096;-74
2022/07/23 08:04:39;;;;;;;9.30;4.85;;;;;;;34.34;29.58;98665.00;4483783;31;20088;-74
2022/07/23 08:07:06;;;;;;;10.63;4.30;;;;;;;34.33;30.56;98666.09;4483802;32;20080;-74
2022/07/23 08:09:33;;;;;;;14.82;4.10;;;;;;;34.41;29.33;98668.13;4483828;32;20705;-73
2022/07/23 08:12:00;;;;;;;6.93;4.53;;;;;;;34.50;28.12;98670.16;4484177;32;20446;-73
2022/07/23 08:14:27;;;;;;;9.68;4.40;;;;;;;34.35;30.92;98663.06;4484283;32;20460;-73
2022/07/23 08:16:54;;;;;;;9.82;4.80;;;;;;;34.60;28.89;98664.56;4483889;32;20169;-74
2022/07/23 08:19:40;;;;;;;6.40;4.03;;;;;;;34.81;28.61;98663.12;4483903;32;20785;-74
2022/07/23 08:22:07;;;;;;;9.77;4.07;;;;;;;34.99;28.33;98657.88;4483860;32;20668;-74
2022/07/23 08:24:34;;;;;;;5.10;3.87;;;;;;;34.82;28.18;98659.31;4483929;32;20084;-74
2022/07/23 08:27:02;;;;;;;10.35;4.82;;;;;;;34.92;27.50;98663.72;4484206;32;20101;-74
2022/07/23 08:29:29;;;;;;;5.47;3.92;;;;;;;34.89;27.73;98664.34;4483709;31;20100;-73
2022/07/23 08:31:57;;;;;;;8.30;4.00;;;;;;;35.05;27.67;98667.59;4483913;32;20556;-74
2022/07/23 08:34:24;;;;;;;8.77;4.03;;;;;;;35.14;26.68;98664.94;4483765;32;20104;-74
2022/07/23 08:36:51;;;;;;;5.30;3.78;;;;;;;35.17;26.77;98667.87;4483672;32;20519;-74
2022/07/23 08:39:18;;;;;;;7.80;4.25;;;;;;;35.42;27.29;98671.22;4483801;32;20100;-74
2022/07/23 08:41:47;;;;;;;9.20;4.32;;;;;;;35.74;26.58;98672.19;4485495;32;20096;-74
2022/07/23 08:44:16;;;;;;;8.98;4.30;;;;;;;35.69;26.56;98670.38;4486128;31;20111;-74
2022/07/23 08:46:43;;;;;;;8.80;4.40;;;;;;;35.67;27.92;98671.78;4485890;31;20093;-74
2022/07/23 08:49:12;;;;;;;8.27;4.72;;;;;;;35.91;27.10;98673.50;4484975;32;20127;-74
2022/07/23 08:51:40;;;;;;;10.13;4.22;;;;;;;36.01;26.41;98668.59;4484513;32;20467;-74
2022/07/23 08:54:07;;;;;;;4.70;4.00;;;;;;;35.94;25.04;98665.50;4486109;31;20104;-74
2022/07/23 08:56:35;;;;;;;7.12;3.70;;;;;;;35.94;25.26;98667.44;4485835;32;20510;-74
2022/07/23 08:59:02;;;;;;;8.48;4.03;;;;;;;35.99;25.42;98668.13;4486057;31;20097;-74
2022/07/23 09:01:29;;;;;;;6.10;4.03;;;;;;;36.10;25.59;98662.44;4485878;31;20130;-74
2022/07/23 09:03:57;;;;;;;9.63;4.30;;;;;;;36.12;25.85;98655.53;4485895;31;20155;-74
2022/07/23 09:06:24;;;;;;;6.97;4.45;;;;;;;36.22;26.29;98666.22;4472090;32;20093;-74
2022/07/23 09:08:51;;;;;;;8.52;5.07;;;;;;;36.12;25.68;98660.19;4470294;32;20165;-74
2022/07/23 09:11:19;;;;;;;10.02;4.87;;;;;;;35.77;26.15;98652.53;4470010;32;20119;-74
2022/07/23 09:13:54;;;;;;;10.70;4.80;;;;;;;35.75;26.20;98657.47;4470033;32;20096;-74
2022/07/23 09:16:29;;;;;;;8.10;5.15;;;;;;;35.96;27.29;98662.47;4469720;32;20092;-74
2022/07/23 09:18:59;;;;;;;11.75;4.90;;;;;;;36.36;25.99;98662.66;4470096;32;20092;-74
2022/07/23 09:21:38;;;;;;;9.52;4.70;;;;;;;36.49;27.26;98659.03;4469866;32;20085;-74
2022/07/23 09:24:07;;;;;;;8.25;4.70;;;;;;;36.33;25.54;98652.34;4470239;32;20111;-74
2022/07/23 09:26:39;;;;;;;8.02;4.50;;;;;;;36.30;25.11;98661.97;4468719;32;20507;-74
2022/07/23 09:29:24;;;;;;;5.55;4.32;;;;;;;36.31;25.81;98657.28;4470047;32;20080;-74
2022/07/23 09:31:57;;;;;;;7.78;4.50;;;;;;;36.68;25.56;98655.28;4470216;32;20131;-74
2022/07/23 09:34:26;;;;;;;8.13;4.50;;;;;;;36.65;24.50;98656.72;4470125;32;20081;-74
2022/07/23 09:36:58;;;;;;;5.55;4.30;;;;;;;36.58;24.75;98651.72;4469897;32;20191;-74
2022/07/23 09:39:33;;;;;;;8.40;5.07;;;;;;;36.53;25.03;98648.28;4469941;32;20141;-74
2022/07/23 09:42:14;;;;;;;7.78;4.65;;;;;;;36.91;25.31;98647.88;4469857;32;20217;-74
2022/07/23 09:44:43;;;;;;;6.35;4.35;;;;;;;37.01;24.50;98644.87;4469929;32;20085;-74
2022/07/23 09:47:10;;;;;;;6.00;4.28;;;;;;;36.85;25.18;98647.19;4469831;32;20088;-74
2022/07/23 09:49:37;;;;;;;5.72;4.12;;;;;;;36.99;24.05;98643.56;4469775;32;20108;-74
2022/07/23 09:52:05;;;;;;;6.32;4.85;;;;;;;37.02;23.62;98643.75;4469125;32;20570;-74
2022/07/23 09:54:39;;;;;;;6.15;3.97;;;;;;;36.36;23.96;98638.09;4469896;32;20101;-74
2022/07/23 09:57:14;;;;;;;4.03;3.70;;;;;;;36.55;24.02;98644.16;4469665;32;20072;-74
2022/07/23 09:59:43;;;;;;;7.70;4.20;;;;;;;36.76;23.45;98644.44;4470984;32;20146;-74
2022/07/23 10:02:15;;;;;;;11.60;4.45;;;;;;;37.05;23.62;98634.09;4485419;31;20452;-74
2022/07/23 10:04:43;;;;;;;9.57;4.57;;;;;;;36.70;23.72;98636.66;4485446;31;20557;-74
2022/07/23 10:07:11;;;;;;;6.25;4.07;;;;;;;36.94;24.64;98641.78;4485610;31;20156;-74
2022/07/23 10:09:52;;;;;;;9.63;4.15;;;;;;;37.14;23.28;98629.47;4484290;32;20093;-74
2022/07/23 10:14:50;;;;;;;7.07;4.43;;;;;;;37.20;23.18;98625.50;4485655;31;20100;-74
2022/07/23 10:17:18;;;;;;;8.60;4.25;;;;;;;37.44;22.67;98633.28;4485161;31;20115;-74
2022/07/23 10:19:45;;;;;;;9.13;4.20;;;;;;;37.40;23.23;98629.56;4485162;31;20162;-74
2022/07/23 10:22:22;;;;;;;6.93;3.83;;;;;;;37.69;22.75;98619.16;4485069;32;20126;-74
2022/07/23 10:25:11;;;;;;;6.30;4.35;;;;;;;37.17;22.78;98622.56;4484176;32;20524;-74
2022/07/23 10:27:51;;;;;;;6.80;3.70;;;;;;;37.17;23.59;98617.94;4485309;31;20119;-74
2022/07/23 10:30:43;;;;;;;8.93;3.95;;;;;;;37.70;22.44;98609.81;4483910;32;20376;-74
2022/07/23 10:33:38;;;;;;;6.15;3.80;;;;;;;38.01;22.22;98606.16;4420684;32;20479;-74
2022/07/23 10:36:16;;;;;;;4.65;3.70;;;;;;;38.52;21.60;98609.94;4408055;32;20094;-74
2022/07/23 10:39:05;;;;;;;5.78;4.55;;;;;;;38.69;21.10;98603.63;4420404;32;20255;-74
2022/07/23 10:41:35;;;;;;;9.45;4.65;;;;;;;38.55;21.76;98608.47;4420735;32;20101;-74
2022/07/23 10:44:11;;;;;;;6.72;4.07;;;;;;;38.37;21.68;98594.03;4420640;32;20113;-74
2022/07/23 10:47:22;;;;;;;8.88;4.47;;;;;;;38.31;22.70;98596.94;4420566;32;20498;-74
2022/07/23 10:49:44;;;;;;;11.38;4.43;;;;;;;38.67;22.57;98594.91;4420411;32;20586;-74
2022/07/23 10:52:15;;;;;;;4.80;4.30;;;;;;;38.89;21.20;98595.81;4407560;32;20098;-74
2022/07/23 10:54:48;;;;;;;5.82;4.10;;;;;;;39.18;21.07;98604.03;4420529;32;20467;-74
2022/07/23 10:57:17;;;;;;;4.90;3.42;;;;;;;38.89;20.36;98587.59;4420258;32;20170;-74
2022/07/23 11:02:33;;;;;;;8.75;4.18;;;;;;;39.53;19.94;98587.38;4419986;32;20136;-74
2022/07/23 11:05:04;;;;;;;6.30;4.50;;;;;;;39.69;20.60;98581.31;4419868;32;20101;-74
2022/07/23 11:07:31;;;;;;;9.88;4.22;;;;;;;39.90;20.51;98579.31;4420419;32;20206;-74
2022/07/23 11:09:59;;;;;;;10.18;4.30;;;;;;;39.99;19.30;98576.53;4445515;32;20080;-74
2022/07/23 11:12:28;;;;;;;11.80;4.68;;;;;;;40.04;19.90;98572.78;4484984;31;20076;-74
2022/07/23 11:15:05;;;;;;;5.90;4.28;;;;;;;39.97;19.92;98573.28;4484912;31;20626;-74
2022/07/23 11:17:39;;;;;;;9.07;4.62;;;;;;;39.82;20.24;98571.19;4484807;32;20084;-74
2022/07/23 11:20:09;;;;;;;5.45;4.20;;;;;;;39.98;19.63;98572.16;4484634;31;20080;-74
2022/07/23 11:22:36;;;;;;;5.75;4.35;;;;;;;39.75;19.61;98572.53;4485108;32;20092;-74
2022/07/23 11:25:04;;;;;;;8.05;4.62;;;;;;;39.92;20.35;98565.28;4484773;31;20093;-74
2022/07/23 11:27:42;;;;;;;4.68;3.78;;;;;;;40.17;19.72;98559.87;4484759;31;20407;-74
2022/07/23 11:30:44;;;;;;;8.02;4.35;;;;;;;40.03;20.13;98554.69;4484882;32;20106;-74
2022/07/23 11:33:11;;;;;;;8.13;4.40;;;;;;;40.05;19.44;98552.44;4484817;31;20490;-74
2022/07/23 11:35:41;;;;;;;6.70;4.53;;;;;;;40.06;20.33;98548.53;4484625;31;20104;-74
2022/07/23 11:38:14;;;;;;;7.50;4.32;;;;;;;39.83;19.50;98550.84;4484754;31;20244;-74
2022/07/23 11:40:45;;;;;;;5.57;4.50;;;;;;;39.40;20.24;98550.06;4484634;32;20533;-75
2022/07/23 11:43:13;;;;;;;5.00;4.25;;;;;;;39.59;20.10;98540.59;4484641;31;20084;-74
2022/07/23 11:45:45;;;;;;;8.23;5.22;;;;;;;39.85;19.48;98543.91;4484472;31;20156;-74